sensor_id;sensor_type;location;lat;lon;timestamp;P1;durP1;ratioP1;P2;durP2;ratioP2
34007;SDS011;41085;51.594;7.138;2022-11-18T06:11:07;0.20;;;0.20;;
34007;SDS011;41085;51.594;7.138;2022-11-18T06:15:52;0.40;;;0.40;;
34007;SDS011;41085;51.594;7.138;2022-11-18T06:24:55;0.68;;;0.25;;
34007;SDS011;41085;51.594;7.138;2022-11-18T06:35:21;0.90;;;0.40;;
34007;SDS011;41085;51.594;7.138;2022-11-18T06:39:44;0.50;;;0.30;;
34007;SDS011;41085;51.594;7.138;2022-11-18T06:43:45;0.57;;;0.33;;
34007;SDS011;41085;51.594;7.138;2022-11-18T06:47:45;0.70;;;0.20;;
34007;SDS011;41085;51.594;7.138;2022-11-18T06:51:46;0.57;;;0.30;;
34007;SDS011;41085;51.594;7.138;2022-11-18T06:55:46;0.17;;;0.10;;
34007;SDS011;41085;51.594;7.138;2022-11-18T06:59:47;0.10;;;0.10;;
34007;SDS011;41085;51.594;7.138;2022-11-18T07:03:48;0.35;;;0.20;;
34007;SDS011;41085;51.594;7.138;2022-11-18T07:07:49;1.75;;;0.50;;
34007;SDS011;41085;51.594;7.138;2022-11-18T07:11:50;0.10;;;0.10;;
34007;SDS011;41085;51.594;7.138;2022-11-18T07:15:50;0.10;;;0.10;;
34007;SDS011;41085;51.594;7.138;2022-11-18T07:19:51;0.50;;;0.22;;
34007;SDS011;41085;51.594;7.138;2022-11-18T07:23:54;0.45;;;0.28;;
34007;SDS011;41085;51.594;7.138;2022-11-18T07:27:55;0.30;;;0.30;;
34007;SDS011;41085;51.594;7.138;2022-11-18T07:31:57;0.43;;;0.20;;
34007;SDS011;41085;51.594;7.138;2022-11-18T07:36:09;0.40;;;0.10;;
34007;SDS011;41085;51.594;7.138;2022-11-18T07:40:20;0.73;;;0.30;;
34007;SDS011;41085;51.594;7.138;2022-11-18T07:44:23;0.70;;;0.00;;
34007;SDS011;41085;51.594;7.138;2022-11-18T07:48:23;0.20;;;0.10;;
34007;SDS011;41085;51.594;7.138;2022-11-18T07:52:27;0.13;;;0.10;;
34007;SDS011;41085;51.594;7.138;2022-11-18T07:56:30;0.10;;;0.03;;
34007;SDS011;41085;51.594;7.138;2022-11-18T08:00:31;0.13;;;0.10;;
34007;SDS011;41085;51.594;7.138;2022-11-18T08:04:31;0.10;;;0.10;;
34007;SDS011;41085;51.594;7.138;2022-11-18T08:08:32;0.17;;;0.10;;
34007;SDS011;41085;51.594;7.138;2022-11-18T08:12:33;0.30;;;0.10;;
34007;SDS011;41085;51.594;7.138;2022-11-18T08:16:33;0.30;;;0.20;;
34007;SDS011;41085;51.594;7.138;2022-11-18T08:20:34;0.83;;;0.20;;
34007;SDS011;41085;51.594;7.138;2022-11-18T08:24:35;0.10;;;0.10;;
34007;SDS011;41085;51.594;7.138;2022-11-18T08:28:36;2.20;;;0.20;;
34007;SDS011;41085;51.594;7.138;2022-11-18T08:32:39;0.00;;;0.00;;
34007;SDS011;41085;51.594;7.138;2022-11-18T08:36:43;0.60;;;0.30;;
34007;SDS011;41085;51.594;7.138;2022-11-18T08:40:44;0.40;;;0.20;;
34007;SDS011;41085;51.594;7.138;2022-11-18T08:44:47;0.20;;;0.08;;
34007;SDS011;41085;51.594;7.138;2022-11-18T08:48:48;0.00;;;0.00;;
34007;SDS011;41085;51.594;7.138;2022-11-18T08:52:49;1.40;;;0.20;;
34007;SDS011;41085;51.594;7.138;2022-11-18T08:56:49;0.40;;;0.10;;
34007;SDS011;41085;51.594;7.138;2022-11-18T09:00:50;0.40;;;0.10;;
34007;SDS011;41085;51.594;7.138;2022-11-18T09:04:51;1.80;;;0.10;;
34007;SDS011;41085;51.594;7.138;2022-11-18T09:13:15;2.72;;;0.50;;
34007;SDS011;41085;51.594;7.138;2022-11-18T09:17:15;3.85;;;0.17;;
34007;SDS011;41085;51.594;7.138;2022-11-18T09:21:19;0.00;;;0.00;;
34007;SDS011;41085;51.594;7.138;2022-11-18T09:25:19;0.40;;;0.10;;
34007;SDS011;41085;51.594;7.138;2022-11-18T09:29:20;0.10;;;0.10;;
34007;SDS011;41085;51.594;7.138;2022-11-18T09:33:24;1.10;;;0.30;;
34007;SDS011;41085;51.594;7.138;2022-11-18T09:37:26;0.13;;;0.10;;
34007;SDS011;41085;51.594;7.138;2022-11-18T09:46:00;11.60;;;0.70;;
34007;SDS011;41085;51.594;7.138;2022-11-18T09:50:15;3.60;;;0.50;;
34007;SDS011;41085;51.594;7.138;2022-11-18T09:54:25;0.70;;;0.30;;
34007;SDS011;41085;51.594;7.138;2022-11-18T09:58:31;0.98;;;0.50;;
34007;SDS011;41085;51.594;7.138;2022-11-18T10:02:40;0.95;;;0.50;;
34007;SDS011;41085;51.594;7.138;2022-11-18T10:06:56;1.30;;;0.23;;
34007;SDS011;41085;51.594;7.138;2022-11-18T10:15:11;1.40;;;0.40;;
34007;SDS011;41085;51.594;7.138;2022-11-18T10:19:32;1.52;;;0.20;;
34007;SDS011;41085;51.594;7.138;2022-11-18T10:23:49;1.88;;;0.43;;
34007;SDS011;41085;51.594;7.138;2022-11-18T10:27:57;0.10;;;0.10;;
34007;SDS011;41085;51.594;7.138;2022-11-18T10:32:19;1.40;;;0.22;;
34007;SDS011;41085;51.594;7.138;2022-11-18T10:36:27;0.80;;;0.40;;
34007;SDS011;41085;51.594;7.138;2022-11-18T10:40:41;0.40;;;0.20;;
34007;SDS011;41085;51.594;7.138;2022-11-18T10:44:47;1.15;;;0.13;;
34007;SDS011;41085;51.594;7.138;2022-11-18T10:57:30;6.70;;;0.40;;
34007;SDS011;41085;51.594;7.138;2022-11-18T11:01:58;1.35;;;0.28;;
34007;SDS011;41085;51.594;7.138;2022-11-18T11:10:25;0.85;;;0.20;;
34007;SDS011;41085;51.594;7.138;2022-11-18T11:14:27;0.10;;;0.10;;
34007;SDS011;41085;51.594;7.138;2022-11-18T11:18:44;0.60;;;0.15;;
34007;SDS011;41085;51.594;7.138;2022-11-18T11:22:52;1.13;;;0.40;;
34007;SDS011;41085;51.594;7.138;2022-11-18T11:27:04;0.30;;;0.10;;
34007;SDS011;41085;51.594;7.138;2022-11-18T11:36:07;2.60;;;0.30;;
34007;SDS011;41085;51.594;7.138;2022-11-18T11:40:18;2.20;;;0.20;;
34007;SDS011;41085;51.594;7.138;2022-11-18T11:53:31;11.00;;;2.38;;
34007;SDS011;41085;51.594;7.138;2022-11-18T11:57:52;6.87;;;3.77;;
34007;SDS011;41085;51.594;7.138;2022-11-18T12:02:00;6.87;;;3.03;;
34007;SDS011;41085;51.594;7.138;2022-11-18T12:06:15;9.05;;;3.75;;
34007;SDS011;41085;51.594;7.138;2022-11-18T12:10:21;8.40;;;3.23;;
34007;SDS011;41085;51.594;7.138;2022-11-18T12:19:45;5.07;;;3.00;;
34007;SDS011;41085;51.594;7.138;2022-11-18T12:24:22;4.00;;;2.58;;
34007;SDS011;41085;51.594;7.138;2022-11-18T12:28:51;3.67;;;2.20;;
34007;SDS011;41085;51.594;7.138;2022-11-18T12:32:55;2.40;;;1.40;;
34007;SDS011;41085;51.594;7.138;2022-11-18T12:37:36;1.25;;;1.00;;
34007;SDS011;41085;51.594;7.138;2022-11-18T12:41:51;1.73;;;1.00;;
34007;SDS011;41085;51.594;7.138;2022-11-18T12:46:55;2.38;;;1.08;;
34007;SDS011;41085;51.594;7.138;2022-11-18T12:51:37;2.80;;;1.00;;
34007;SDS011;41085;51.594;7.138;2022-11-18T12:55:43;1.70;;;1.02;;
34007;SDS011;41085;51.594;7.138;2022-11-18T12:59:44;1.27;;;0.98;;
34007;SDS011;41085;51.594;7.138;2022-11-18T13:03:48;1.02;;;0.90;;
34007;SDS011;41085;51.594;7.138;2022-11-18T13:12:15;1.90;;;1.00;;
34007;SDS011;41085;51.594;7.138;2022-11-18T13:16:21;2.20;;;0.97;;
34007;SDS011;41085;51.594;7.138;2022-11-18T13:20:42;1.75;;;0.80;;
34007;SDS011;41085;51.594;7.138;2022-11-18T13:24:52;0.90;;;0.77;;
34007;SDS011;41085;51.594;7.138;2022-11-18T13:33:18;0.87;;;0.60;;
34007;SDS011;41085;51.594;7.138;2022-11-18T13:37:26;1.08;;;0.82;;
34007;SDS011;41085;51.594;7.138;2022-11-18T13:41:30;3.13;;;0.88;;
34007;SDS011;41085;51.594;7.138;2022-11-18T13:45:33;1.33;;;0.70;;
34007;SDS011;41085;51.594;7.138;2022-11-18T13:54:34;2.00;;;0.80;;
34007;SDS011;41085;51.594;7.138;2022-11-18T14:11:42;0.90;;;0.77;;
34007;SDS011;41085;51.594;7.138;2022-11-18T14:15:48;2.25;;;0.80;;
34007;SDS011;41085;51.594;7.138;2022-11-18T14:50:24;2.43;;;0.57;;
34007;SDS011;41085;51.594;7.138;2022-11-18T14:55:34;2.30;;;0.60;;
34007;SDS011;41085;51.594;7.138;2022-11-18T15:05:24;1.95;;;0.60;;
34007;SDS011;41085;51.594;7.138;2022-11-18T15:09:59;0.57;;;0.40;;
34007;SDS011;41085;51.594;7.138;2022-11-18T15:14:40;0.80;;;0.70;;
34007;SDS011;41085;51.594;7.138;2022-11-18T15:24:30;1.20;;;0.40;;
34007;SDS011;41085;51.594;7.138;2022-11-18T18:15:43;0.43;;;0.30;;
34007;SDS011;41085;51.594;7.138;2022-11-18T18:20:28;0.20;;;0.20;;
34007;SDS011;41085;51.594;7.138;2022-11-18T18:25:27;0.35;;;0.20;;
34007;SDS011;41085;51.594;7.138;2022-11-18T18:29:27;0.43;;;0.30;;
34007;SDS011;41085;51.594;7.138;2022-11-18T18:33:28;0.55;;;0.45;;
34007;SDS011;41085;51.594;7.138;2022-11-18T18:37:29;2.87;;;0.40;;
34007;SDS011;41085;51.594;7.138;2022-11-18T18:41:29;0.40;;;0.20;;
34007;SDS011;41085;51.594;7.138;2022-11-18T18:45:31;0.30;;;0.30;;
34007;SDS011;41085;51.594;7.138;2022-11-18T18:49:50;0.82;;;0.40;;
34007;SDS011;41085;51.594;7.138;2022-11-18T18:53:51;0.22;;;0.22;;
34007;SDS011;41085;51.594;7.138;2022-11-18T18:57:52;0.90;;;0.30;;
34007;SDS011;41085;51.594;7.138;2022-11-18T19:01:52;0.70;;;0.30;;
34007;SDS011;41085;51.594;7.138;2022-11-18T19:05:53;0.20;;;0.10;;
34007;SDS011;41085;51.594;7.138;2022-11-18T19:09:53;0.47;;;0.40;;
34007;SDS011;41085;51.594;7.138;2022-11-18T19:13:54;0.20;;;0.10;;
34007;SDS011;41085;51.594;7.138;2022-11-18T19:18:03;0.40;;;0.30;;
34007;SDS011;41085;51.594;7.138;2022-11-18T19:22:04;0.77;;;0.25;;
34007;SDS011;41085;51.594;7.138;2022-11-18T19:26:05;0.55;;;0.30;;
34007;SDS011;41085;51.594;7.138;2022-11-18T19:30:06;0.70;;;0.20;;
34007;SDS011;41085;51.594;7.138;2022-11-18T19:34:09;0.23;;;0.10;;
34007;SDS011;41085;51.594;7.138;2022-11-18T19:38:09;1.50;;;0.45;;
34007;SDS011;41085;51.594;7.138;2022-11-18T19:42:10;0.83;;;0.60;;
34007;SDS011;41085;51.594;7.138;2022-11-18T19:46:17;0.30;;;0.30;;
34007;SDS011;41085;51.594;7.138;2022-11-18T19:50:20;0.60;;;0.40;;
34007;SDS011;41085;51.594;7.138;2022-11-18T19:54:21;0.30;;;0.30;;
34007;SDS011;41085;51.594;7.138;2022-11-18T19:58:22;0.30;;;0.25;;
34007;SDS011;41085;51.594;7.138;2022-11-18T20:02:23;0.50;;;0.30;;
34007;SDS011;41085;51.594;7.138;2022-11-18T20:06:24;0.60;;;0.40;;
34007;SDS011;41085;51.594;7.138;2022-11-18T20:10:26;0.27;;;0.27;;
34007;SDS011;41085;51.594;7.138;2022-11-18T20:14:26;0.57;;;0.40;;
34007;SDS011;41085;51.594;7.138;2022-11-18T20:18:36;5.03;;;0.47;;
34007;SDS011;41085;51.594;7.138;2022-11-18T20:22:41;0.43;;;0.30;;
34007;SDS011;41085;51.594;7.138;2022-11-18T20:26:45;0.47;;;0.13;;
34007;SDS011;41085;51.594;7.138;2022-11-18T20:30:45;0.35;;;0.32;;
34007;SDS011;41085;51.594;7.138;2022-11-18T20:34:46;0.43;;;0.30;;
34007;SDS011;41085;51.594;7.138;2022-11-18T20:38:47;0.67;;;0.30;;
34007;SDS011;41085;51.594;7.138;2022-11-18T20:42:58;1.10;;;0.40;;
34007;SDS011;41085;51.594;7.138;2022-11-18T20:47:16;0.67;;;0.30;;
34007;SDS011;41085;51.594;7.138;2022-11-18T20:51:26;2.40;;;0.30;;
34007;SDS011;41085;51.594;7.138;2022-11-18T20:55:27;0.30;;;0.20;;
34007;SDS011;41085;51.594;7.138;2022-11-18T20:59:36;0.80;;;0.40;;
34007;SDS011;41085;51.594;7.138;2022-11-18T21:03:46;0.57;;;0.25;;
34007;SDS011;41085;51.594;7.138;2022-11-18T21:07:59;0.40;;;0.30;;
34007;SDS011;41085;51.594;7.138;2022-11-18T21:11:59;0.57;;;0.20;;
34007;SDS011;41085;51.594;7.138;2022-11-18T21:16:03;0.75;;;0.43;;
34007;SDS011;41085;51.594;7.138;2022-11-18T21:20:10;1.10;;;0.30;;
34007;SDS011;41085;51.594;7.138;2022-11-18T21:24:31;1.00;;;0.45;;
34007;SDS011;41085;51.594;7.138;2022-11-18T21:28:33;0.30;;;0.20;;
34007;SDS011;41085;51.594;7.138;2022-11-18T21:32:34;0.87;;;0.43;;
34007;SDS011;41085;51.594;7.138;2022-11-18T21:36:40;3.90;;;0.43;;
34007;SDS011;41085;51.594;7.138;2022-11-18T21:40:41;0.63;;;0.45;;
34007;SDS011;41085;51.594;7.138;2022-11-18T21:44:42;0.90;;;0.60;;
34007;SDS011;41085;51.594;7.138;2022-11-18T21:48:43;0.50;;;0.30;;
34007;SDS011;41085;51.594;7.138;2022-11-18T21:52:44;1.45;;;0.32;;
34007;SDS011;41085;51.594;7.138;2022-11-18T21:56:44;0.20;;;0.13;;
34007;SDS011;41085;51.594;7.138;2022-11-18T22:00:45;0.57;;;0.37;;
34007;SDS011;41085;51.594;7.138;2022-11-18T22:04:46;0.52;;;0.28;;
34007;SDS011;41085;51.594;7.138;2022-11-18T22:08:55;1.80;;;0.30;;
34007;SDS011;41085;51.594;7.138;2022-11-18T22:13:05;0.70;;;0.40;;
34007;SDS011;41085;51.594;7.138;2022-11-18T22:17:05;0.50;;;0.30;;
34007;SDS011;41085;51.594;7.138;2022-11-18T22:21:13;2.80;;;0.40;;
34007;SDS011;41085;51.594;7.138;2022-11-18T22:25:22;0.60;;;0.47;;
34007;SDS011;41085;51.594;7.138;2022-11-18T22:29:23;0.70;;;0.40;;
34007;SDS011;41085;51.594;7.138;2022-11-18T22:33:28;0.50;;;0.30;;
34007;SDS011;41085;51.594;7.138;2022-11-18T22:37:32;0.20;;;0.20;;
34007;SDS011;41085;51.594;7.138;2022-11-18T22:41:33;0.40;;;0.20;;
34007;SDS011;41085;51.594;7.138;2022-11-18T22:46:02;0.25;;;0.25;;
34007;SDS011;41085;51.594;7.138;2022-11-18T22:50:05;0.45;;;0.20;;
34007;SDS011;41085;51.594;7.138;2022-11-18T22:54:06;0.40;;;0.30;;
34007;SDS011;41085;51.594;7.138;2022-11-18T22:58:08;0.20;;;0.20;;
34007;SDS011;41085;51.594;7.138;2022-11-18T23:02:08;0.40;;;0.17;;
34007;SDS011;41085;51.594;7.138;2022-11-18T23:06:09;0.40;;;0.30;;
34007;SDS011;41085;51.594;7.138;2022-11-18T23:10:11;1.60;;;0.35;;
34007;SDS011;41085;51.594;7.138;2022-11-18T23:14:11;1.60;;;0.50;;
34007;SDS011;41085;51.594;7.138;2022-11-18T23:18:12;0.40;;;0.30;;
34007;SDS011;41085;51.594;7.138;2022-11-18T23:22:12;0.50;;;0.30;;
34007;SDS011;41085;51.594;7.138;2022-11-18T23:26:14;1.80;;;0.25;;
34007;SDS011;41085;51.594;7.138;2022-11-18T23:30:15;1.48;;;0.30;;
34007;SDS011;41085;51.594;7.138;2022-11-18T23:34:16;0.52;;;0.32;;
34007;SDS011;41085;51.594;7.138;2022-11-18T23:38:17;0.90;;;0.40;;
34007;SDS011;41085;51.594;7.138;2022-11-18T23:42:17;0.73;;;0.30;;
34007;SDS011;41085;51.594;7.138;2022-11-18T23:46:18;0.43;;;0.40;;
34007;SDS011;41085;51.594;7.138;2022-11-18T23:50:19;0.30;;;0.20;;
34007;SDS011;41085;51.594;7.138;2022-11-18T23:54:19;0.70;;;0.30;;
34007;SDS011;41085;51.594;7.138;2022-11-18T23:58:20;0.40;;;0.20;;
